sensor_id;sensor_type;location;lat;lon;timestamp;P1;durP1;ratioP1;P2;durP2;ratioP2
50066;SDS011;35952;52.524;13.340;2023-03-01T00:01:28;26.70;;;17.90;;
50066;SDS011;35952;52.524;13.340;2023-03-01T00:03:55;22.38;;;16.67;;
50066;SDS011;35952;52.524;13.340;2023-03-01T00:06:21;26.83;;;17.65;;
50066;SDS011;35952;52.524;13.340;2023-03-01T00:08:47;28.58;;;18.30;;
50066;SDS011;35952;52.524;13.340;2023-03-01T00:11:18;32.25;;;20.50;;
50066;SDS011;35952;52.524;13.340;2023-03-01T00:13:46;30.33;;;18.67;;
50066;SDS011;35952;52.524;13.340;2023-03-01T00:16:14;28.98;;;19.48;;
50066;SDS011;35952;52.524;13.340;2023-03-01T00:18:59;29.90;;;19.70;;
50066;SDS011;35952;52.524;13.340;2023-03-01T00:21:25;31.03;;;20.87;;
50066;SDS011;35952;52.524;13.340;2023-03-01T00:23:52;29.48;;;22.15;;
50066;SDS011;35952;52.524;13.340;2023-03-01T00:26:18;31.77;;;19.40;;
50066;SDS011;35952;52.524;13.340;2023-03-01T00:28:45;30.30;;;20.58;;
50066;SDS011;35952;52.524;13.340;2023-03-01T00:31:12;30.52;;;20.23;;
50066;SDS011;35952;52.524;13.340;2023-03-01T00:33:40;33.13;;;19.90;;
50066;SDS011;35952;52.524;13.340;2023-03-01T00:36:06;26.00;;;18.80;;
50066;SDS011;35952;52.524;13.340;2023-03-01T00:38:39;33.13;;;19.55;;
50066;SDS011;35952;52.524;13.340;2023-03-01T00:41:07;32.38;;;21.70;;
50066;SDS011;35952;52.524;13.340;2023-03-01T00:43:35;32.38;;;20.23;;
50066;SDS011;35952;52.524;13.340;2023-03-01T00:46:04;30.75;;;20.02;;
50066;SDS011;35952;52.524;13.340;2023-03-01T00:48:32;35.17;;;20.50;;
50066;SDS011;35952;52.524;13.340;2023-03-01T00:51:03;31.20;;;19.80;;
50066;SDS011;35952;52.524;13.340;2023-03-01T00:53:32;29.42;;;18.77;;
50066;SDS011;35952;52.524;13.340;2023-03-01T00:55:59;33.50;;;21.35;;
50066;SDS011;35952;52.524;13.340;2023-03-01T00:58:25;33.07;;;20.77;;
50066;SDS011;35952;52.524;13.340;2023-03-01T01:00:51;30.88;;;21.83;;
50066;SDS011;35952;52.524;13.340;2023-03-01T01:03:17;32.97;;;20.83;;
50066;SDS011;35952;52.524;13.340;2023-03-01T01:05:43;30.35;;;19.20;;
50066;SDS011;35952;52.524;13.340;2023-03-01T01:08:09;32.33;;;21.70;;
50066;SDS011;35952;52.524;13.340;2023-03-01T01:10:34;28.33;;;19.13;;
50066;SDS011;35952;52.524;13.340;2023-03-01T01:13:00;36.87;;;21.87;;
50066;SDS011;35952;52.524;13.340;2023-03-01T01:15:25;32.90;;;21.77;;
50066;SDS011;35952;52.524;13.340;2023-03-01T01:17:51;37.53;;;21.40;;
50066;SDS011;35952;52.524;13.340;2023-03-01T01:20:17;30.40;;;20.10;;
50066;SDS011;35952;52.524;13.340;2023-03-01T01:22:42;30.47;;;22.40;;
50066;SDS011;35952;52.524;13.340;2023-03-01T01:25:08;34.10;;;21.23;;
50066;SDS011;35952;52.524;13.340;2023-03-01T01:27:34;36.23;;;21.87;;
50066;SDS011;35952;52.524;13.340;2023-03-01T01:29:59;35.13;;;22.63;;
50066;SDS011;35952;52.524;13.340;2023-03-01T01:32:25;33.10;;;20.57;;
50066;SDS011;35952;52.524;13.340;2023-03-01T01:34:50;28.10;;;20.77;;
50066;SDS011;35952;52.524;13.340;2023-03-01T01:37:16;34.23;;;22.20;;
50066;SDS011;35952;52.524;13.340;2023-03-01T01:39:41;29.27;;;20.23;;
50066;SDS011;35952;52.524;13.340;2023-03-01T01:42:12;28.07;;;19.70;;
50066;SDS011;35952;52.524;13.340;2023-03-01T01:44:42;36.70;;;22.17;;
50066;SDS011;35952;52.524;13.340;2023-03-01T01:47:13;34.92;;;21.27;;
50066;SDS011;35952;52.524;13.340;2023-03-01T01:49:53;36.08;;;22.02;;
50066;SDS011;35952;52.524;13.340;2023-03-01T01:52:31;30.92;;;21.55;;
50066;SDS011;35952;52.524;13.340;2023-03-01T01:55:02;32.45;;;21.05;;
50066;SDS011;35952;52.524;13.340;2023-03-01T01:57:36;30.88;;;21.02;;
50066;SDS011;35952;52.524;13.340;2023-03-01T02:00:07;30.55;;;20.38;;
50066;SDS011;35952;52.524;13.340;2023-03-01T02:02:37;29.25;;;20.27;;
50066;SDS011;35952;52.524;13.340;2023-03-01T02:05:09;29.35;;;19.85;;
50066;SDS011;35952;52.524;13.340;2023-03-01T02:07:40;32.22;;;20.90;;
50066;SDS011;35952;52.524;13.340;2023-03-01T02:10:07;28.90;;;20.42;;
50066;SDS011;35952;52.524;13.340;2023-03-01T02:12:33;28.73;;;20.35;;
50066;SDS011;35952;52.524;13.340;2023-03-01T02:14:59;33.77;;;21.67;;
50066;SDS011;35952;52.524;13.340;2023-03-01T02:17:24;31.20;;;22.00;;
50066;SDS011;35952;52.524;13.340;2023-03-01T02:19:53;30.43;;;20.83;;
50066;SDS011;35952;52.524;13.340;2023-03-01T02:22:24;34.20;;;23.10;;
50066;SDS011;35952;52.524;13.340;2023-03-01T02:28:01;29.35;;;20.65;;
50066;SDS011;35952;52.524;13.340;2023-03-01T02:30:35;32.33;;;20.75;;
50066;SDS011;35952;52.524;13.340;2023-03-01T02:33:02;30.77;;;20.10;;
50066;SDS011;35952;52.524;13.340;2023-03-01T02:35:30;31.98;;;20.60;;
50066;SDS011;35952;52.524;13.340;2023-03-01T02:37:59;30.60;;;20.80;;
50066;SDS011;35952;52.524;13.340;2023-03-01T02:40:27;30.05;;;21.15;;
50066;SDS011;35952;52.524;13.340;2023-03-01T02:42:56;27.75;;;20.77;;
50066;SDS011;35952;52.524;13.340;2023-03-01T02:45:23;30.10;;;21.45;;
50066;SDS011;35952;52.524;13.340;2023-03-01T02:47:49;34.47;;;21.38;;
50066;SDS011;35952;52.524;13.340;2023-03-01T02:53:04;35.58;;;20.48;;
50066;SDS011;35952;52.524;13.340;2023-03-01T02:55:36;31.30;;;21.90;;
50066;SDS011;35952;52.524;13.340;2023-03-01T02:58:03;34.78;;;21.55;;
50066;SDS011;35952;52.524;13.340;2023-03-01T03:00:47;30.45;;;21.30;;
50066;SDS011;35952;52.524;13.340;2023-03-01T03:03:14;30.25;;;21.85;;
50066;SDS011;35952;52.524;13.340;2023-03-01T03:05:41;34.10;;;20.88;;
50066;SDS011;35952;52.524;13.340;2023-03-01T03:08:06;33.20;;;21.23;;
50066;SDS011;35952;52.524;13.340;2023-03-01T03:10:34;28.57;;;22.70;;
50066;SDS011;35952;52.524;13.340;2023-03-01T03:13:04;30.48;;;21.17;;
50066;SDS011;35952;52.524;13.340;2023-03-01T03:15:32;30.38;;;21.10;;
50066;SDS011;35952;52.524;13.340;2023-03-01T03:18:00;29.20;;;20.75;;
50066;SDS011;35952;52.524;13.340;2023-03-01T03:20:27;32.00;;;22.27;;
50066;SDS011;35952;52.524;13.340;2023-03-01T03:22:54;32.90;;;22.10;;
50066;SDS011;35952;52.524;13.340;2023-03-01T03:25:21;37.30;;;21.40;;
50066;SDS011;35952;52.524;13.340;2023-03-01T03:27:49;32.20;;;21.52;;
50066;SDS011;35952;52.524;13.340;2023-03-01T03:30:21;28.83;;;19.38;;
50066;SDS011;35952;52.524;13.340;2023-03-01T03:32:48;32.10;;;20.30;;
50066;SDS011;35952;52.524;13.340;2023-03-01T03:35:21;28.33;;;20.48;;
50066;SDS011;35952;52.524;13.340;2023-03-01T03:37:49;28.08;;;20.83;;
50066;SDS011;35952;52.524;13.340;2023-03-01T03:40:31;30.38;;;20.35;;
50066;SDS011;35952;52.524;13.340;2023-03-01T03:43:03;28.15;;;20.42;;
50066;SDS011;35952;52.524;13.340;2023-03-01T03:45:30;30.50;;;21.42;;
50066;SDS011;35952;52.524;13.340;2023-03-01T03:47:58;28.35;;;20.02;;
50066;SDS011;35952;52.524;13.340;2023-03-01T03:50:24;29.75;;;20.42;;
50066;SDS011;35952;52.524;13.340;2023-03-01T03:52:49;32.23;;;22.60;;
50066;SDS011;35952;52.524;13.340;2023-03-01T03:55:15;28.77;;;20.83;;
50066;SDS011;35952;52.524;13.340;2023-03-01T03:57:44;29.63;;;21.95;;
50066;SDS011;35952;52.524;13.340;2023-03-01T04:00:16;33.55;;;21.98;;
50066;SDS011;35952;52.524;13.340;2023-03-01T04:02:46;32.97;;;21.65;;
50066;SDS011;35952;52.524;13.340;2023-03-01T04:05:12;32.33;;;20.95;;
50066;SDS011;35952;52.524;13.340;2023-03-01T04:07:39;28.27;;;20.15;;
50066;SDS011;35952;52.524;13.340;2023-03-01T04:10:08;30.80;;;20.00;;
50066;SDS011;35952;52.524;13.340;2023-03-01T04:12:35;33.53;;;20.67;;
50066;SDS011;35952;52.524;13.340;2023-03-01T04:15:01;36.13;;;22.90;;
50066;SDS011;35952;52.524;13.340;2023-03-01T04:17:38;31.40;;;22.20;;
50066;SDS011;35952;52.524;13.340;2023-03-01T04:20:05;30.80;;;22.42;;
50066;SDS011;35952;52.524;13.340;2023-03-01T04:22:31;26.30;;;19.88;;
50066;SDS011;35952;52.524;13.340;2023-03-01T04:24:58;35.92;;;20.50;;
50066;SDS011;35952;52.524;13.340;2023-03-01T04:27:26;30.02;;;19.90;;
50066;SDS011;35952;52.524;13.340;2023-03-01T04:29:52;32.30;;;21.53;;
50066;SDS011;35952;52.524;13.340;2023-03-01T04:32:17;33.50;;;21.40;;
50066;SDS011;35952;52.524;13.340;2023-03-01T04:34:43;36.27;;;21.57;;
50066;SDS011;35952;52.524;13.340;2023-03-01T04:37:08;32.93;;;20.43;;
50066;SDS011;35952;52.524;13.340;2023-03-01T04:39:34;32.30;;;21.27;;
50066;SDS011;35952;52.524;13.340;2023-03-01T04:42:10;32.65;;;20.17;;
50066;SDS011;35952;52.524;13.340;2023-03-01T04:44:39;27.35;;;19.40;;
50066;SDS011;35952;52.524;13.340;2023-03-01T04:47:05;25.90;;;20.93;;
50066;SDS011;35952;52.524;13.340;2023-03-01T04:49:31;27.55;;;20.20;;
50066;SDS011;35952;52.524;13.340;2023-03-01T04:51:56;28.37;;;20.60;;
50066;SDS011;35952;52.524;13.340;2023-03-01T04:54:30;32.60;;;20.50;;
50066;SDS011;35952;52.524;13.340;2023-03-01T04:56:57;31.13;;;21.17;;
50066;SDS011;35952;52.524;13.340;2023-03-01T04:59:23;34.83;;;23.23;;
50066;SDS011;35952;52.524;13.340;2023-03-01T05:01:50;27.17;;;20.48;;
50066;SDS011;35952;52.524;13.340;2023-03-01T05:04:17;32.35;;;20.60;;
50066;SDS011;35952;52.524;13.340;2023-03-01T05:06:43;31.50;;;22.47;;
50066;SDS011;35952;52.524;13.340;2023-03-01T05:09:09;28.60;;;19.98;;
50066;SDS011;35952;52.524;13.340;2023-03-01T05:11:36;27.58;;;20.23;;
50066;SDS011;35952;52.524;13.340;2023-03-01T05:14:02;28.80;;;19.97;;
50066;SDS011;35952;52.524;13.340;2023-03-01T05:16:28;27.70;;;20.40;;
50066;SDS011;35952;52.524;13.340;2023-03-01T05:18:55;27.88;;;19.35;;
50066;SDS011;35952;52.524;13.340;2023-03-01T05:21:21;27.48;;;20.27;;
50066;SDS011;35952;52.524;13.340;2023-03-01T05:23:47;26.23;;;18.73;;
50066;SDS011;35952;52.524;13.340;2023-03-01T05:26:13;26.27;;;18.93;;
50066;SDS011;35952;52.524;13.340;2023-03-01T05:28:40;25.23;;;17.52;;
50066;SDS011;35952;52.524;13.340;2023-03-01T05:31:05;24.07;;;18.70;;
50066;SDS011;35952;52.524;13.340;2023-03-01T05:33:35;28.23;;;19.13;;
50066;SDS011;35952;52.524;13.340;2023-03-01T05:36:04;26.50;;;19.45;;
50066;SDS011;35952;52.524;13.340;2023-03-01T05:38:32;23.10;;;17.35;;
50066;SDS011;35952;52.524;13.340;2023-03-01T05:40:58;29.00;;;19.27;;
50066;SDS011;35952;52.524;13.340;2023-03-01T05:43:23;27.97;;;18.70;;
50066;SDS011;35952;52.524;13.340;2023-03-01T05:45:48;24.93;;;19.00;;
50066;SDS011;35952;52.524;13.340;2023-03-01T05:48:14;24.17;;;18.50;;
50066;SDS011;35952;52.524;13.340;2023-03-01T05:50:41;31.97;;;18.90;;
50066;SDS011;35952;52.524;13.340;2023-03-01T05:53:15;25.10;;;17.58;;
50066;SDS011;35952;52.524;13.340;2023-03-01T05:55:43;25.90;;;18.38;;
50066;SDS011;35952;52.524;13.340;2023-03-01T05:58:12;28.48;;;19.63;;
50066;SDS011;35952;52.524;13.340;2023-03-01T06:00:47;24.00;;;17.83;;
50066;SDS011;35952;52.524;13.340;2023-03-01T06:03:14;26.48;;;19.20;;
50066;SDS011;35952;52.524;13.340;2023-03-01T06:05:41;25.05;;;18.55;;
50066;SDS011;35952;52.524;13.340;2023-03-01T06:08:08;30.85;;;19.38;;
50066;SDS011;35952;52.524;13.340;2023-03-01T06:10:34;25.05;;;17.40;;
50066;SDS011;35952;52.524;13.340;2023-03-01T06:13:00;27.30;;;18.57;;
50066;SDS011;35952;52.524;13.340;2023-03-01T06:15:26;26.87;;;19.07;;
50066;SDS011;35952;52.524;13.340;2023-03-01T06:17:52;25.67;;;17.93;;
50066;SDS011;35952;52.524;13.340;2023-03-01T06:20:21;26.15;;;17.88;;
50066;SDS011;35952;52.524;13.340;2023-03-01T06:22:48;25.50;;;19.00;;
50066;SDS011;35952;52.524;13.340;2023-03-01T06:25:15;25.23;;;17.92;;
50066;SDS011;35952;52.524;13.340;2023-03-01T06:27:43;24.73;;;18.60;;
50066;SDS011;35952;52.524;13.340;2023-03-01T06:30:10;23.83;;;18.63;;
50066;SDS011;35952;52.524;13.340;2023-03-01T06:32:37;30.90;;;21.15;;
50066;SDS011;35952;52.524;13.340;2023-03-01T06:35:07;27.08;;;19.60;;
50066;SDS011;35952;52.524;13.340;2023-03-01T06:37:33;31.73;;;19.38;;
50066;SDS011;35952;52.524;13.340;2023-03-01T06:40:00;26.88;;;19.83;;
50066;SDS011;35952;52.524;13.340;2023-03-01T06:42:31;21.00;;;17.73;;
50066;SDS011;35952;52.524;13.340;2023-03-01T06:44:57;32.60;;;21.00;;
50066;SDS011;35952;52.524;13.340;2023-03-01T06:47:22;32.13;;;23.03;;
50066;SDS011;35952;52.524;13.340;2023-03-01T06:49:48;38.53;;;25.00;;
50066;SDS011;35952;52.524;13.340;2023-03-01T06:52:14;30.80;;;22.50;;
50066;SDS011;35952;52.524;13.340;2023-03-01T06:54:39;26.20;;;19.47;;
50066;SDS011;35952;52.524;13.340;2023-03-01T06:57:04;28.70;;;21.70;;
50066;SDS011;35952;52.524;13.340;2023-03-01T06:59:30;36.93;;;20.67;;
50066;SDS011;35952;52.524;13.340;2023-03-01T07:01:56;25.58;;;17.75;;
50066;SDS011;35952;52.524;13.340;2023-03-01T07:04:21;32.67;;;19.47;;
50066;SDS011;35952;52.524;13.340;2023-03-01T07:06:47;25.43;;;17.97;;
50066;SDS011;35952;52.524;13.340;2023-03-01T07:09:19;29.58;;;18.50;;
50066;SDS011;35952;52.524;13.340;2023-03-01T07:11:46;32.72;;;19.45;;
50066;SDS011;35952;52.524;13.340;2023-03-01T07:14:12;29.20;;;18.97;;
50066;SDS011;35952;52.524;13.340;2023-03-01T07:16:38;30.90;;;19.07;;
50066;SDS011;35952;52.524;13.340;2023-03-01T07:19:03;30.30;;;17.40;;
50066;SDS011;35952;52.524;13.340;2023-03-01T07:21:30;29.27;;;18.55;;
50066;SDS011;35952;52.524;13.340;2023-03-01T07:23:55;37.73;;;21.13;;
50066;SDS011;35952;52.524;13.340;2023-03-01T07:26:21;24.63;;;17.23;;
50066;SDS011;35952;52.524;13.340;2023-03-01T07:28:46;30.27;;;18.83;;
50066;SDS011;35952;52.524;13.340;2023-03-01T07:31:12;28.63;;;18.40;;
50066;SDS011;35952;52.524;13.340;2023-03-01T07:33:37;30.23;;;20.80;;
50066;SDS011;35952;52.524;13.340;2023-03-01T07:36:03;28.80;;;19.77;;
50066;SDS011;35952;52.524;13.340;2023-03-01T07:38:30;25.65;;;20.20;;
50066;SDS011;35952;52.524;13.340;2023-03-01T07:40:59;25.50;;;18.85;;
50066;SDS011;35952;52.524;13.340;2023-03-01T07:43:27;29.25;;;18.60;;
50066;SDS011;35952;52.524;13.340;2023-03-01T07:45:53;31.30;;;18.08;;
50066;SDS011;35952;52.524;13.340;2023-03-01T07:48:19;32.37;;;19.93;;
50066;SDS011;35952;52.524;13.340;2023-03-01T07:50:44;28.07;;;19.90;;
50066;SDS011;35952;52.524;13.340;2023-03-01T07:53:09;31.70;;;20.23;;
50066;SDS011;35952;52.524;13.340;2023-03-01T07:55:35;24.13;;;18.33;;
50066;SDS011;35952;52.524;13.340;2023-03-01T07:58:01;28.17;;;17.65;;
50066;SDS011;35952;52.524;13.340;2023-03-01T08:00:27;32.53;;;19.87;;
50066;SDS011;35952;52.524;13.340;2023-03-01T08:02:52;32.30;;;21.90;;
50066;SDS011;35952;52.524;13.340;2023-03-01T08:05:18;18.57;;;14.13;;
50066;SDS011;35952;52.524;13.340;2023-03-01T08:07:43;23.57;;;17.30;;
50066;SDS011;35952;52.524;13.340;2023-03-01T08:10:09;29.10;;;18.17;;
50066;SDS011;35952;52.524;13.340;2023-03-01T08:12:35;26.73;;;16.85;;
50066;SDS011;35952;52.524;13.340;2023-03-01T08:15:00;25.13;;;15.13;;
50066;SDS011;35952;52.524;13.340;2023-03-01T08:17:26;27.57;;;16.57;;
50066;SDS011;35952;52.524;13.340;2023-03-01T08:19:51;30.03;;;20.20;;
50066;SDS011;35952;52.524;13.340;2023-03-01T08:22:17;29.30;;;16.73;;
50066;SDS011;35952;52.524;13.340;2023-03-01T08:24:42;23.70;;;17.43;;
50066;SDS011;35952;52.524;13.340;2023-03-01T08:27:08;19.43;;;14.17;;
50066;SDS011;35952;52.524;13.340;2023-03-01T08:29:34;46.37;;;31.87;;
50066;SDS011;35952;52.524;13.340;2023-03-01T08:31:59;65.97;;;42.67;;
50066;SDS011;35952;52.524;13.340;2023-03-01T08:34:25;22.83;;;18.90;;
50066;SDS011;35952;52.524;13.340;2023-03-01T08:36:51;18.43;;;12.63;;
50066;SDS011;35952;52.524;13.340;2023-03-01T08:39:17;14.00;;;9.93;;
50066;SDS011;35952;52.524;13.340;2023-03-01T08:41:44;16.53;;;11.17;;
50066;SDS011;35952;52.524;13.340;2023-03-01T08:44:10;13.90;;;10.17;;
50066;SDS011;35952;52.524;13.340;2023-03-01T08:46:38;18.27;;;10.30;;
50066;SDS011;35952;52.524;13.340;2023-03-01T08:49:16;18.13;;;12.30;;
50066;SDS011;35952;52.524;13.340;2023-03-01T08:51:43;10.00;;;7.93;;
50066;SDS011;35952;52.524;13.340;2023-03-01T08:54:18;10.30;;;7.60;;
50066;SDS011;35952;52.524;13.340;2023-03-01T08:56:44;18.40;;;11.70;;
50066;SDS011;35952;52.524;13.340;2023-03-01T08:59:10;8.67;;;6.00;;
50066;SDS011;35952;52.524;13.340;2023-03-01T09:01:37;11.27;;;6.50;;
50066;SDS011;35952;52.524;13.340;2023-03-01T09:04:03;14.40;;;7.50;;
50066;SDS011;35952;52.524;13.340;2023-03-01T09:06:32;15.93;;;7.57;;
50066;SDS011;35952;52.524;13.340;2023-03-01T09:08:58;10.80;;;6.60;;
50066;SDS011;35952;52.524;13.340;2023-03-01T09:11:24;11.32;;;6.43;;
50066;SDS011;35952;52.524;13.340;2023-03-01T09:13:50;10.80;;;6.90;;
50066;SDS011;35952;52.524;13.340;2023-03-01T09:16:17;11.80;;;7.27;;
50066;SDS011;35952;52.524;13.340;2023-03-01T09:18:44;7.17;;;6.47;;
50066;SDS011;35952;52.524;13.340;2023-03-01T09:21:14;9.33;;;6.40;;
50066;SDS011;35952;52.524;13.340;2023-03-01T09:23:44;6.30;;;5.40;;
50066;SDS011;35952;52.524;13.340;2023-03-01T09:26:12;10.77;;;6.43;;
50066;SDS011;35952;52.524;13.340;2023-03-01T09:28:41;9.30;;;6.63;;
50066;SDS011;35952;52.524;13.340;2023-03-01T09:31:07;10.83;;;7.33;;
50066;SDS011;35952;52.524;13.340;2023-03-01T09:33:33;9.77;;;6.93;;
50066;SDS011;35952;52.524;13.340;2023-03-01T09:36:00;11.00;;;7.17;;
50066;SDS011;35952;52.524;13.340;2023-03-01T09:38:27;8.23;;;6.13;;
50066;SDS011;35952;52.524;13.340;2023-03-01T09:40:53;7.17;;;6.40;;
50066;SDS011;35952;52.524;13.340;2023-03-01T09:43:24;6.83;;;6.13;;
50066;SDS011;35952;52.524;13.340;2023-03-01T09:45:58;11.50;;;7.67;;
50066;SDS011;35952;52.524;13.340;2023-03-01T09:48:37;9.97;;;6.73;;
50066;SDS011;35952;52.524;13.340;2023-03-01T09:51:31;11.80;;;7.17;;
50066;SDS011;35952;52.524;13.340;2023-03-01T09:53:58;11.17;;;7.60;;
50066;SDS011;35952;52.524;13.340;2023-03-01T10:04:51;12.33;;;8.40;;
50066;SDS011;35952;52.524;13.340;2023-03-01T10:07:24;10.53;;;8.40;;
50066;SDS011;35952;52.524;13.340;2023-03-01T10:09:55;14.30;;;8.90;;
50066;SDS011;35952;52.524;13.340;2023-03-01T10:12:22;13.33;;;9.30;;
50066;SDS011;35952;52.524;13.340;2023-03-01T10:15:05;10.20;;;8.10;;
50066;SDS011;35952;52.524;13.340;2023-03-01T10:20:18;15.07;;;9.60;;
50066;SDS011;35952;52.524;13.340;2023-03-01T10:22:44;9.80;;;8.80;;
50066;SDS011;35952;52.524;13.340;2023-03-01T10:25:15;11.77;;;9.70;;
50066;SDS011;35952;52.524;13.340;2023-03-01T10:27:51;12.50;;;8.27;;
50066;SDS011;35952;52.524;13.340;2023-03-01T10:30:19;12.23;;;9.47;;
50066;SDS011;35952;52.524;13.340;2023-03-01T10:32:51;28.40;;;10.87;;
50066;SDS011;35952;52.524;13.340;2023-03-01T10:35:20;16.27;;;9.83;;
50066;SDS011;35952;52.524;13.340;2023-03-01T10:38:04;25.40;;;9.43;;
50066;SDS011;35952;52.524;13.340;2023-03-01T10:40:35;12.77;;;9.47;;
50066;SDS011;35952;52.524;13.340;2023-03-01T10:43:14;7.30;;;6.50;;
50066;SDS011;35952;52.524;13.340;2023-03-01T10:45:39;8.77;;;6.73;;
50066;SDS011;35952;52.524;13.340;2023-03-01T10:48:13;8.40;;;7.00;;
50066;SDS011;35952;52.524;13.340;2023-03-01T10:53:25;7.60;;;6.60;;
50066;SDS011;35952;52.524;13.340;2023-03-01T10:56:21;10.77;;;6.87;;
50066;SDS011;35952;52.524;13.340;2023-03-01T10:59:02;13.63;;;6.17;;
50066;SDS011;35952;52.524;13.340;2023-03-01T11:01:30;7.60;;;6.13;;
50066;SDS011;35952;52.524;13.340;2023-03-01T11:04:10;7.53;;;6.10;;
50066;SDS011;35952;52.524;13.340;2023-03-01T11:06:38;7.57;;;5.37;;
50066;SDS011;35952;52.524;13.340;2023-03-01T11:11:41;7.17;;;6.47;;
50066;SDS011;35952;52.524;13.340;2023-03-01T11:14:17;11.57;;;6.87;;
50066;SDS011;35952;52.524;13.340;2023-03-01T11:16:48;8.77;;;6.40;;
50066;SDS011;35952;52.524;13.340;2023-03-01T11:19:23;7.67;;;6.30;;
50066;SDS011;35952;52.524;13.340;2023-03-01T11:24:31;6.67;;;5.83;;
50066;SDS011;35952;52.524;13.340;2023-03-01T11:27:00;6.63;;;6.03;;
50066;SDS011;35952;52.524;13.340;2023-03-01T11:32:17;9.67;;;5.57;;
50066;SDS011;35952;52.524;13.340;2023-03-01T11:34:50;5.20;;;4.70;;
50066;SDS011;35952;52.524;13.340;2023-03-01T11:49:02;3.87;;;3.40;;
50066;SDS011;35952;52.524;13.340;2023-03-01T11:51:59;5.17;;;4.47;;
50066;SDS011;35952;52.524;13.340;2023-03-01T12:08:52;5.70;;;4.30;;
50066;SDS011;35952;52.524;13.340;2023-03-01T12:14:28;5.60;;;4.23;;
50066;SDS011;35952;52.524;13.340;2023-03-01T12:20:02;5.40;;;3.70;;
50066;SDS011;35952;52.524;13.340;2023-03-01T12:28:37;5.97;;;4.50;;
50066;SDS011;35952;52.524;13.340;2023-03-01T12:40:03;6.10;;;4.93;;
50066;SDS011;35952;52.524;13.340;2023-03-01T12:48:39;7.67;;;5.00;;
50066;SDS011;35952;52.524;13.340;2023-03-01T12:51:31;7.30;;;5.30;;
50066;SDS011;35952;52.524;13.340;2023-03-01T12:53:59;5.60;;;4.67;;
50066;SDS011;35952;52.524;13.340;2023-03-01T12:56:45;5.63;;;4.80;;
50066;SDS011;35952;52.524;13.340;2023-03-01T12:59:25;7.80;;;4.50;;
50066;SDS011;35952;52.524;13.340;2023-03-01T13:07:30;9.80;;;5.30;;
50066;SDS011;35952;52.524;13.340;2023-03-01T13:17:48;7.00;;;4.30;;
50066;SDS011;35952;52.524;13.340;2023-03-01T13:28:40;7.23;;;3.67;;
50066;SDS011;35952;52.524;13.340;2023-03-01T13:31:54;5.10;;;4.23;;
50066;SDS011;35952;52.524;13.340;2023-03-01T13:33:55;4.40;;;3.90;;
50066;SDS011;35952;52.524;13.340;2023-03-01T13:38:58;4.43;;;3.67;;
50066;SDS011;35952;52.524;13.340;2023-03-01T13:41:52;3.97;;;3.50;;
50066;SDS011;35952;52.524;13.340;2023-03-01T13:44:35;5.87;;;3.60;;
50066;SDS011;35952;52.524;13.340;2023-03-01T13:54:59;4.17;;;3.70;;
50066;SDS011;35952;52.524;13.340;2023-03-01T13:57:30;4.07;;;3.10;;
50066;SDS011;35952;52.524;13.340;2023-03-01T13:59:59;5.90;;;4.40;;
50066;SDS011;35952;52.524;13.340;2023-03-01T14:02:25;5.00;;;3.47;;
50066;SDS011;35952;52.524;13.340;2023-03-01T14:05:00;7.50;;;3.30;;
50066;SDS011;35952;52.524;13.340;2023-03-01T14:07:32;8.37;;;4.27;;
50066;SDS011;35952;52.524;13.340;2023-03-01T14:09:59;10.03;;;3.93;;
50066;SDS011;35952;52.524;13.340;2023-03-01T14:15:17;3.43;;;2.83;;
50066;SDS011;35952;52.524;13.340;2023-03-01T14:20:32;4.40;;;3.00;;
50066;SDS011;35952;52.524;13.340;2023-03-01T14:23:09;4.27;;;3.40;;
50066;SDS011;35952;52.524;13.340;2023-03-01T14:25:46;6.23;;;4.00;;
50066;SDS011;35952;52.524;13.340;2023-03-01T14:28:14;3.97;;;3.60;;
50066;SDS011;35952;52.524;13.340;2023-03-01T14:30:47;6.57;;;4.33;;
50066;SDS011;35952;52.524;13.340;2023-03-01T14:33:22;3.90;;;3.27;;
50066;SDS011;35952;52.524;13.340;2023-03-01T14:35:55;4.77;;;4.03;;
50066;SDS011;35952;52.524;13.340;2023-03-01T14:38:43;4.00;;;3.57;;
50066;SDS011;35952;52.524;13.340;2023-03-01T14:41:12;6.23;;;2.97;;
50066;SDS011;35952;52.524;13.340;2023-03-01T14:43:44;3.13;;;2.80;;
50066;SDS011;35952;52.524;13.340;2023-03-01T14:46:19;3.67;;;2.87;;
50066;SDS011;35952;52.524;13.340;2023-03-01T14:48:50;5.20;;;3.53;;
50066;SDS011;35952;52.524;13.340;2023-03-01T14:51:18;5.10;;;2.87;;
50066;SDS011;35952;52.524;13.340;2023-03-01T14:53:43;5.93;;;2.90;;
50066;SDS011;35952;52.524;13.340;2023-03-01T14:56:13;4.67;;;2.70;;
50066;SDS011;35952;52.524;13.340;2023-03-01T14:58:42;3.47;;;3.10;;
50066;SDS011;35952;52.524;13.340;2023-03-01T15:01:13;5.87;;;3.07;;
50066;SDS011;35952;52.524;13.340;2023-03-01T15:03:48;5.03;;;4.30;;
50066;SDS011;35952;52.524;13.340;2023-03-01T15:06:15;5.03;;;3.53;;
50066;SDS011;35952;52.524;13.340;2023-03-01T15:08:47;3.20;;;2.90;;
50066;SDS011;35952;52.524;13.340;2023-03-01T15:13:54;3.50;;;2.90;;
50066;SDS011;35952;52.524;13.340;2023-03-01T15:16:21;3.13;;;2.60;;
50066;SDS011;35952;52.524;13.340;2023-03-01T15:21:25;5.70;;;4.30;;
50066;SDS011;35952;52.524;13.340;2023-03-01T15:26:55;4.83;;;3.40;;
50066;SDS011;35952;52.524;13.340;2023-03-01T15:29:27;7.10;;;3.80;;
50066;SDS011;35952;52.524;13.340;2023-03-01T15:32:02;6.77;;;3.80;;
50066;SDS011;35952;52.524;13.340;2023-03-01T15:34:47;3.47;;;3.17;;
50066;SDS011;35952;52.524;13.340;2023-03-01T15:40:18;7.90;;;3.87;;
50066;SDS011;35952;52.524;13.340;2023-03-01T15:42:49;7.33;;;3.20;;
50066;SDS011;35952;52.524;13.340;2023-03-01T15:47:43;5.63;;;3.60;;
50066;SDS011;35952;52.524;13.340;2023-03-01T15:50:23;4.67;;;3.70;;
50066;SDS011;35952;52.524;13.340;2023-03-01T15:52:53;5.50;;;3.83;;
50066;SDS011;35952;52.524;13.340;2023-03-01T15:58:00;4.90;;;3.97;;
50066;SDS011;35952;52.524;13.340;2023-03-01T16:00:30;4.23;;;3.20;;
50066;SDS011;35952;52.524;13.340;2023-03-01T16:02:55;4.63;;;3.47;;
50066;SDS011;35952;52.524;13.340;2023-03-01T16:05:22;5.87;;;3.70;;
50066;SDS011;35952;52.524;13.340;2023-03-01T16:07:53;4.00;;;3.57;;
50066;SDS011;35952;52.524;13.340;2023-03-01T16:10:19;6.67;;;4.33;;
50066;SDS011;35952;52.524;13.340;2023-03-01T16:12:45;4.03;;;3.63;;
50066;SDS011;35952;52.524;13.340;2023-03-01T16:15:17;3.93;;;3.53;;
50066;SDS011;35952;52.524;13.340;2023-03-01T16:17:51;3.87;;;3.47;;
50066;SDS011;35952;52.524;13.340;2023-03-01T16:20:17;7.07;;;3.80;;
50066;SDS011;35952;52.524;13.340;2023-03-01T16:22:43;5.83;;;3.87;;
50066;SDS011;35952;52.524;13.340;2023-03-01T16:25:10;6.10;;;3.90;;
50066;SDS011;35952;52.524;13.340;2023-03-01T16:27:37;4.93;;;3.57;;
50066;SDS011;35952;52.524;13.340;2023-03-01T16:30:03;5.73;;;4.17;;
50066;SDS011;35952;52.524;13.340;2023-03-01T16:32:30;5.50;;;4.20;;
50066;SDS011;35952;52.524;13.340;2023-03-01T16:34:56;5.13;;;4.20;;
50066;SDS011;35952;52.524;13.340;2023-03-01T16:37:21;6.33;;;4.50;;
50066;SDS011;35952;52.524;13.340;2023-03-01T16:39:47;6.27;;;4.33;;
50066;SDS011;35952;52.524;13.340;2023-03-01T16:42:15;10.13;;;4.40;;
50066;SDS011;35952;52.524;13.340;2023-03-01T16:44:42;3.50;;;3.20;;